Time;durP1;ratioP1;P1;durP2;ratioP2;P2;SDS_P1;SDS_P2;PMS_P1;PMS_P2;Temp;Humidity;BMP_temperature;BMP_pressure;BME280_temperature;BME280_humidity;BME280_pressure;Samples;Min_cycle;Max_cycle;Signal;HPM_P1;HPM_P2
2023/10/13 00:00:42;;;;;;;7.93;1.67;;;18.80;99.90;;;;;;10528199;28;20052;-35
2023/10/13 00:05:45;;;;;;;10.45;2.78;;;19.20;99.90;;;;;;10537584;28;20471;-32
2023/10/13 00:10:48;;;;;;;7.43;2.28;;;18.30;99.90;;;;;;10526259;28;20052;-34
2023/10/13 00:15:57;;;;;;;3.72;1.50;;;18.20;99.90;;;;;;10530690;28;20493;-39
2023/10/13 00:20:59;;;;;;;5.40;2.20;;;19.20;99.90;;;;;;10541303;28;20135;-32
2023/10/13 00:26:03;;;;;;;11.30;2.70;;;18.80;99.90;;;;;;10529126;28;20052;-35
2023/10/13 00:31:10;;;;;;;10.10;4.03;;;19.00;99.90;;;;;;10529912;28;20075;-35
2023/10/13 00:36:19;;;;;;;8.93;3.33;;;18.70;99.90;;;;;;10536426;28;20047;-31
2023/10/13 00:41:44;;;;;;;7.38;2.22;;;18.90;99.90;;;;;;10537087;28;20068;-44
2023/10/13 00:46:46;;;;;;;5.65;3.83;;;19.00;99.90;;;;;;10542339;28;20044;-35
2023/10/13 00:51:48;;;;;;;9.25;5.43;;;19.00;99.90;;;;;;10528145;28;20101;-32
2023/10/13 00:56:57;;;;;;;8.73;4.70;;;18.70;99.90;;;;;;10519770;28;20048;-31
2023/10/13 01:02:25;;;;;;;10.95;4.80;;;19.00;99.90;;;;;;10518441;28;20412;-34
2023/10/13 01:07:22;;;;;;;11.82;4.05;;;19.00;99.90;;;;;;10533467;28;20044;-38
2023/10/13 01:12:25;;;;;;;10.15;4.03;;;19.20;99.90;;;;;;10511247;28;20113;-39
2023/10/13 01:17:31;;;;;;;8.48;3.50;;;19.20;99.90;;;;;;10522221;28;20196;-32
2023/10/13 01:22:33;;;;;;;9.25;3.60;;;18.90;99.90;;;;;;10533666;28;20453;-36
2023/10/13 01:27:39;;;;;;;7.88;4.43;;;19.10;99.90;;;;;;10525258;28;20055;-39
2023/10/13 01:32:45;;;;;;;5.30;2.10;;;18.70;99.90;;;;;;10523109;28;20416;-38
2023/10/13 01:37:46;;;;;;;5.95;3.90;;;19.40;99.90;;;;;;10524604;28;20538;-40
2023/10/13 01:42:55;;;;;;;3.83;1.50;;;19.60;99.90;;;;;;10527911;28;20554;-32
2023/10/13 01:47:57;;;;;;;6.82;4.40;;;19.60;99.90;;;;;;10533377;28;20052;-32
2023/10/13 01:53:11;;;;;;;8.27;4.90;;;19.80;99.90;;;;;;10523257;28;20079;-36
2023/10/13 01:58:15;;;;;;;7.05;3.95;;;19.60;99.90;;;;;;10534043;28;20108;-36
2023/10/13 02:03:17;;;;;;;3.80;3.13;;;20.00;99.90;;;;;;10523477;28;20036;-33
2023/10/13 02:08:23;;;;;;;6.40;3.38;;;20.00;99.90;;;;;;10539943;28;20093;-31
2023/10/13 02:13:28;;;;;;;10.57;4.78;;;19.60;99.90;;;;;;10530413;28;20052;-41
2023/10/13 02:18:34;;;;;;;8.00;4.60;;;19.60;99.90;;;;;;10529713;28;20128;-33
2023/10/13 02:23:43;;;;;;;7.57;3.55;;;19.80;99.90;;;;;;10535910;28;20131;-35
2023/10/13 02:28:51;;;;;;;6.00;1.90;;;19.90;99.90;;;;;;10517741;28;20445;-36
2023/10/13 02:33:54;;;;;;;10.95;4.10;;;20.80;99.90;;;;;;10521915;28;20121;-41
2023/10/13 02:38:57;;;;;;;11.10;2.05;;;19.70;99.90;;;;;;10522981;28;20070;-34
2023/10/13 02:44:01;;;;;;;3.78;1.08;;;20.70;99.90;;;;;;10519783;28;20052;-34
2023/10/13 02:49:09;;;;;;;2.63;1.00;;;21.30;99.90;;;;;;10528139;28;20090;-33
2023/10/13 02:54:11;;;;;;;2.70;0.60;;;21.60;99.90;;;;;;10513681;28;20133;-33
2023/10/13 03:15:35;;;;;;;3.35;1.00;;;22.10;99.90;;;;;;10552261;27;20166;-32
2023/10/13 03:20:42;;;;;;;2.72;1.13;;;22.00;99.90;;;;;;10556371;28;20112;-36
2023/10/13 03:25:43;;;;;;;2.17;1.00;;;21.70;99.90;;;;;;10542209;28;20052;-40
2023/10/13 03:30:52;;;;;;;2.13;0.90;;;21.30;99.90;;;;;;10565593;28;20070;-38
2023/10/13 03:35:54;;;;;;;1.40;0.70;;;21.70;99.90;;;;;;10562228;28;20091;-33
2023/10/13 03:41:07;;;;;;;6.03;1.92;;;22.00;99.90;;;;;;10574895;28;20469;-34
2023/10/13 03:46:10;;;;;;;4.50;1.88;;;21.20;99.90;;;;;;10550377;28;20051;-40
2023/10/13 03:51:14;;;;;;;0.93;0.60;;;21.20;99.90;;;;;;10551292;28;20052;-36
2023/10/13 03:56:26;;;;;;;3.45;1.45;;;21.30;99.90;;;;;;10561485;28;20165;-33
2023/10/13 04:01:34;;;;;;;3.40;1.65;;;20.90;99.90;;;;;;10566416;28;20047;-32
2023/10/13 04:07:13;;;;;;;3.33;1.83;;;21.10;99.90;;;;;;10554791;28;20143;-37
2023/10/13 04:13:49;;;;;;;5.47;2.83;;;20.20;99.90;;;;;;10558132;28;20060;-37
2023/10/13 04:17:50;;;;;;;4.53;2.58;;;19.60;99.90;;;;;;10572602;28;20040;-32
2023/10/13 04:28:34;;;;;;;6.15;4.05;;;19.10;99.90;;;;;;10511098;28;20508;-32
2023/10/13 04:33:43;;;;;;;8.95;3.67;;;18.80;99.90;;;;;;10533819;28;20079;-42
2023/10/13 04:38:56;;;;;;;7.03;2.88;;;19.20;99.90;;;;;;10536465;28;20052;-35
2023/10/13 04:44:04;;;;;;;10.95;3.00;;;18.80;99.90;;;;;;10527007;28;20040;-38
2023/10/13 04:49:27;;;;;;;7.80;2.25;;;18.70;99.90;;;;;;10522387;28;20044;-32
2023/10/13 04:54:45;;;;;;;15.32;4.13;;;18.90;99.90;;;;;;10534574;28;20079;-32
2023/10/13 05:05:21;;;;;;;11.85;2.72;;;18.10;99.90;;;;;;10489215;28;20163;-39
2023/10/13 05:47:50;;;;;;;11.18;2.60;;;19.30;99.90;;;;;;10487504;28;20040;-33
2023/10/13 06:30:13;;;;;;;4.82;1.50;;;21.60;99.90;;;;;;10524919;28;20055;-34
2023/10/13 06:35:22;;;;;;;4.85;1.48;;;21.10;99.90;;;;;;10530759;28;20154;-37
2023/10/13 06:40:33;;;;;;;4.22;2.20;;;21.70;99.90;;;;;;10532159;28;20051;-33
2023/10/13 06:45:37;;;;;;;5.55;2.33;;;21.40;99.90;;;;;;10531999;28;20056;-34
2023/10/13 06:50:41;;;;;;;7.75;4.80;;;21.70;99.90;;;;;;10519176;28;20086;-31
2023/10/13 06:55:46;;;;;;;5.90;2.80;;;20.60;99.90;;;;;;10519629;28;20083;-33
2023/10/13 07:00:55;;;;;;;7.60;3.35;;;21.30;99.90;;;;;;10513384;28;20044;-35
2023/10/13 07:05:59;;;;;;;11.52;3.15;;;21.00;99.90;;;;;;10520647;28;20054;-34
2023/10/13 07:11:08;;;;;;;15.38;3.40;;;20.40;99.90;;;;;;10523944;28;20052;-33
2023/10/13 07:16:12;;;;;;;16.33;4.28;;;20.10;99.90;;;;;;10510748;28;20052;-36
2023/10/13 07:21:14;;;;;;;8.35;2.78;;;20.30;99.90;;;;;;10509223;28;20052;-33
2023/10/13 07:26:17;;;;;;;13.40;3.55;;;20.20;99.90;;;;;;10520356;28;20052;-33
2023/10/13 07:31:20;;;;;;;6.88;2.67;;;20.30;99.90;;;;;;10514558;28;20452;-36
2023/10/13 07:36:27;;;;;;;5.70;2.65;;;20.90;99.90;;;;;;10517518;28;20040;-35
2023/10/13 07:41:32;;;;;;;8.95;2.90;;;20.90;99.90;;;;;;10524697;28;20044;-32
2023/10/13 07:46:35;;;;;;;12.95;4.22;;;20.90;99.90;;;;;;10522389;28;20123;-32
2023/10/13 07:51:44;;;;;;;12.95;4.55;;;20.50;99.90;;;;;;10514533;28;20183;-33
2023/10/13 07:56:47;;;;;;;7.55;2.85;;;20.50;99.90;;;;;;10527545;28;20524;-35
2023/10/13 08:02:11;;;;;;;14.48;3.70;;;20.60;99.90;;;;;;10525777;28;20523;-39
2023/10/13 08:07:13;;;;;;;14.95;3.53;;;21.10;99.90;;;;;;10533660;28;20051;-36
2023/10/13 08:12:21;;;;;;;19.27;3.88;;;19.90;99.90;;;;;;10531076;28;20060;-35
2023/10/13 08:17:29;;;;;;;19.20;4.97;;;20.20;99.90;;;;;;10519782;28;20040;-41
2023/10/13 08:22:35;;;;;;;12.48;3.60;;;19.70;99.90;;;;;;10525843;28;20436;-38
2023/10/13 08:27:49;;;;;;;15.23;5.07;;;19.60;99.90;;;;;;10535728;28;20408;-35
2023/10/13 08:32:56;;;;;;;20.42;4.60;;;19.30;99.90;;;;;;10534469;28;20110;-35
2023/10/13 08:38:04;;;;;;;21.65;5.28;;;19.30;99.90;;;;;;10535434;28;20411;-30
2023/10/13 08:43:12;;;;;;;8.02;3.10;;;19.30;99.90;;;;;;10534528;28;20530;-36
2023/10/13 08:48:15;;;;;;;16.83;3.78;;;19.80;99.90;;;;;;10519423;28;20044;-36
2023/10/13 08:53:27;;;;;;;14.73;3.47;;;19.80;99.90;;;;;;10519631;28;20079;-31
2023/10/13 08:59:05;;;;;;;12.95;3.40;;;19.70;99.90;;;;;;10522641;28;20097;-33
2023/10/13 09:04:22;;;;;;;9.40;3.35;;;20.20;99.90;;;;;;10514021;28;20037;-34
2023/10/13 09:09:35;;;;;;;11.02;3.35;;;20.20;99.90;;;;;;10530032;28;20047;-34
2023/10/13 09:14:43;;;;;;;7.03;2.78;;;20.40;99.90;;;;;;10522901;28;20489;-32
2023/10/13 09:19:55;;;;;;;11.63;4.22;;;20.40;99.90;;;;;;10530494;28;20056;-38
2023/10/13 09:25:02;;;;;;;17.10;4.30;;;20.30;99.90;;;;;;10527265;28;20036;-34
2023/10/13 09:30:09;;;;;;;17.10;5.15;;;20.40;99.90;;;;;;10534928;28;20080;-35
2023/10/13 09:35:18;;;;;;;7.13;3.53;;;20.00;99.90;;;;;;10529574;28;20044;-31
2023/10/13 09:40:28;;;;;;;14.95;4.45;;;20.90;99.90;;;;;;10524067;28;20048;-36
2023/10/13 09:45:36;;;;;;;12.52;3.30;;;20.80;99.90;;;;;;10533015;28;20453;-34
2023/10/13 09:50:41;;;;;;;28.45;4.45;;;21.00;99.90;;;;;;10529614;28;20063;-38
2023/10/13 09:55:45;;;;;;;13.23;3.67;;;20.80;99.90;;;;;;10532210;28;20048;-34
2023/10/13 10:00:57;;;;;;;10.68;4.32;;;20.80;99.90;;;;;;10526700;28;20070;-32
2023/10/13 10:06:13;;;;;;;9.25;3.75;;;21.00;99.90;;;;;;10519615;28;20044;-36
2023/10/13 10:11:45;;;;;;;11.15;3.22;;;21.30;99.90;;;;;;10531859;28;20043;-35
2023/10/13 10:17:07;;;;;;;15.95;4.75;;;21.30;99.90;;;;;;10523414;28;20050;-32
2023/10/13 10:22:16;;;;;;;;;;;21.00;99.90;;;;;;10517272;28;20435;-29
2023/10/13 10:27:25;;;;;;;13.88;3.78;;;21.20;99.90;;;;;;10510617;28;19923;-36
2023/10/13 10:32:36;;;;;;;19.10;4.35;;;21.50;99.90;;;;;;10527621;28;20193;-32
2023/10/13 10:37:43;;;;;;;13.57;3.80;;;21.30;99.90;;;;;;10530989;28;20524;-33
2023/10/13 10:42:45;;;;;;;14.85;3.85;;;21.50;99.90;;;;;;10521363;28;20523;-37
2023/10/13 10:47:50;;;;;;;;;;;21.30;99.90;;;;;;10529640;28;20472;-31
2023/10/13 10:52:57;;;;;;;11.23;3.60;;;21.10;99.90;;;;;;10518602;28;19920;-41
2023/10/13 10:58:04;;;;;;;13.13;4.10;;;21.50;99.90;;;;;;10529970;28;20040;-33
2023/10/13 11:03:07;;;;;;;20.15;4.40;;;21.40;99.90;;;;;;10531143;28;20047;-39
2023/10/13 11:08:16;;;;;;;21.67;5.07;;;21.30;99.90;;;;;;10517811;28;20443;-36
2023/10/13 11:13:21;;;;;;;12.63;5.32;;;21.60;99.90;;;;;;10524837;28;20491;-38
2023/10/13 11:18:36;;;;;;;20.33;5.53;;;21.20;99.90;;;;;;10516314;28;20075;-36
2023/10/13 11:23:39;;;;;;;14.02;4.93;;;21.40;99.90;;;;;;10525043;28;20537;-38
2023/10/13 11:29:27;;;;;;;23.00;5.13;;;21.30;99.90;;;;;;10537489;28;20142;-41
2023/10/13 11:34:40;;;;;;;18.73;5.18;;;21.20;99.90;;;;;;10525719;28;20051;-36
2023/10/13 11:39:55;;;;;;;18.67;4.72;;;21.40;99.90;;;;;;10537021;28;20068;-36
2023/10/13 11:45:28;;;;;;;14.35;5.07;;;21.50;99.90;;;;;;10534515;28;20056;-32
2023/10/13 11:50:51;;;;;;;13.25;4.28;;;21.60;99.90;;;;;;10542298;28;20048;-35
2023/10/13 11:55:57;;;;;;;16.85;5.20;;;21.50;99.90;;;;;;10539897;28;20113;-36
2023/10/13 12:01:20;;;;;;;24.67;4.38;;;21.20;99.90;;;;;;10543295;28;20122;-44
2023/10/13 12:06:35;;;;;;;15.52;5.18;;;21.10;99.90;;;;;;10540012;28;20040;-35
2023/10/13 12:11:41;;;;;;;17.25;4.95;;;21.30;99.90;;;;;;10543730;28;20047;-37
2023/10/13 12:16:50;;;;;;;21.73;5.57;;;21.60;99.90;;;;;;10547152;28;20047;-34
2023/10/13 12:22:03;;;;;;;32.10;6.15;;;21.60;99.90;;;;;;10540440;28;20090;-37
2023/10/13 12:27:18;;;;;;;14.07;4.93;;;21.10;99.90;;;;;;10522718;28;20382;-32
2023/10/13 12:32:22;;;;;;;20.38;5.57;;;20.90;99.90;;;;;;10531494;28;20052;-38
2023/10/13 12:53:42;;;;;;;9.77;3.42;;;20.20;99.90;;;;;;10527374;28;20048;-33
2023/10/13 12:58:51;;;;;;;13.57;5.18;;;20.60;99.90;;;;;;10544923;28;20040;-36
2023/10/13 13:03:55;;;;;;;18.00;5.22;;;20.50;99.90;;;;;;10531232;28;20071;-37
2023/10/13 13:09:00;;;;;;;18.90;5.53;;;20.10;99.90;;;;;;10526131;28;20048;-32
2023/10/13 13:14:02;;;;;;;24.40;5.47;;;20.30;99.90;;;;;;10522327;28;20052;-33
2023/10/13 13:19:09;;;;;;;21.95;5.47;;;20.60;99.90;;;;;;10530213;28;20044;-34
2023/10/13 13:24:13;;;;;;;22.30;5.82;;;20.50;99.90;;;;;;10535253;28;20058;-32
2023/10/13 13:29:16;;;;;;;28.60;5.75;;;20.30;99.90;;;;;;10535630;28;20046;-32
2023/10/13 13:34:20;;;;;;;20.05;5.95;;;20.30;99.90;;;;;;10528344;28;20452;-33
2023/10/13 13:39:30;;;;;;;29.38;5.95;;;20.20;99.90;;;;;;10533925;28;20063;-32
2023/10/13 13:44:35;;;;;;;30.98;6.63;;;20.00;99.90;;;;;;10532317;28;20083;-35
2023/10/13 13:49:40;;;;;;;47.97;7.20;;;19.50;99.90;;;;;;10529689;28;20051;-36
2023/10/13 13:54:43;;;;;;;39.17;6.82;;;19.30;99.90;;;;;;10520342;28;20537;-32
2023/10/13 13:59:45;;;;;;;30.77;7.43;;;19.30;99.90;;;;;;10530215;28;20084;-34
2023/10/13 14:04:50;;;;;;;50.38;8.43;;;18.70;99.90;;;;;;10530495;28;20048;-32
2023/10/13 14:10:05;;;;;;;60.95;10.27;;;18.70;99.90;;;;;;10537747;28;20051;-34
2023/10/13 14:15:19;;;;;;;59.75;9.02;;;18.40;99.90;;;;;;10532232;28;20147;-38
2023/10/13 14:20:21;;;;;;;55.65;7.93;;;18.80;99.90;;;;;;10527283;28;20044;-36
2023/10/13 14:25:28;;;;;;;45.63;7.95;;;18.80;99.90;;;;;;10524524;28;20162;-30
2023/10/13 14:30:31;;;;;;;30.90;5.80;;;18.30;99.90;;;;;;10513997;28;20099;-42
2023/10/13 14:35:37;;;;;;;44.20;6.50;;;18.40;99.90;;;;;;10525903;28;20146;-36
2023/10/13 14:40:40;;;;;;;31.85;7.47;;;18.40;99.90;;;;;;10532644;28;20089;-37
2023/10/13 14:45:42;;;;;;;41.22;8.95;;;18.60;99.90;;;;;;10520210;28;20052;-36
2023/10/13 14:50:45;;;;;;;33.83;8.30;;;18.80;99.90;;;;;;10518235;28;20048;-38
2023/10/13 14:55:48;;;;;;;37.03;7.90;;;18.70;99.90;;;;;;10522750;28;20877;-39
2023/10/13 15:00:52;;;;;;;25.42;5.97;;;18.50;99.90;;;;;;10521073;28;20056;-34
2023/10/13 15:05:56;;;;;;;31.58;8.27;;;19.10;99.90;;;;;;10522662;28;20052;-30
2023/10/13 15:11:12;;;;;;;30.25;7.90;;;19.00;99.90;;;;;;10520114;28;20052;-31
2023/10/13 15:16:16;;;;;;;38.53;7.95;;;18.70;99.90;;;;;;10519459;28;20405;-36
2023/10/13 15:21:21;;;;;;;34.53;8.70;;;18.70;99.90;;;;;;10521924;28;20058;-33
2023/10/13 15:26:24;;;;;;;37.97;7.95;;;19.10;99.90;;;;;;10528584;28;20048;-36
2023/10/13 15:31:38;;;;;;;36.13;8.25;;;18.70;99.90;;;;;;10525481;28;20093;-33
2023/10/13 15:36:42;;;;;;;38.08;9.43;;;18.90;99.90;;;;;;10528253;28;20047;-34
2023/10/13 15:41:45;;;;;;;28.77;7.43;;;18.90;99.90;;;;;;10532312;28;20515;-36
2023/10/13 15:46:49;;;;;;;23.00;7.00;;;19.30;99.90;;;;;;10523264;28;20408;-35
2023/10/13 15:51:51;;;;;;;25.10;6.15;;;19.10;99.90;;;;;;10534992;28;20134;-36
2023/10/13 15:56:54;;;;;;;27.08;6.82;;;19.20;99.90;;;;;;10531608;28;20145;-33
2023/10/13 16:01:57;;;;;;;30.33;6.90;;;19.10;99.90;;;;;;10519524;28;20057;-33
2023/10/13 16:06:59;;;;;;;31.17;7.32;;;19.30;99.90;;;;;;10524756;28;20397;-30
2023/10/13 16:12:03;;;;;;;28.10;7.28;;;18.90;99.90;;;;;;10528189;28;20056;-32
2023/10/13 16:17:05;;;;;;;21.55;6.97;;;19.30;99.90;;;;;;10523084;28;20495;-32
2023/10/13 16:22:09;;;;;;;17.10;5.40;;;19.40;99.90;;;;;;10530435;28;20047;-34
2023/10/13 16:27:13;;;;;;;19.52;5.25;;;19.10;99.90;;;;;;10539098;28;20384;-31
2023/10/13 16:32:16;;;;;;;24.38;6.38;;;19.30;99.90;;;;;;10526290;28;20036;-32
2023/10/13 16:37:20;;;;;;;19.10;5.65;;;19.30;99.90;;;;;;10533084;28;20160;-31
2023/10/13 16:42:23;;;;;;;21.10;6.07;;;19.60;99.90;;;;;;10535220;28;20105;-34
2023/10/13 16:47:25;;;;;;;23.20;4.95;;;19.50;99.90;;;;;;10530064;28;20548;-37
2023/10/13 16:52:27;;;;;;;24.13;6.43;;;19.50;99.90;;;;;;10538104;28;20058;-41
2023/10/13 16:57:31;;;;;;;16.10;4.93;;;19.50;99.90;;;;;;10534849;28;20056;-34
2023/10/13 17:02:33;;;;;;;23.88;4.95;;;19.40;99.90;;;;;;10535702;28;20071;-34
2023/10/13 17:07:35;;;;;;;21.42;5.50;;;19.50;99.90;;;;;;10542541;28;20047;-39
2023/10/13 17:12:39;;;;;;;13.90;4.07;;;19.20;99.90;;;;;;10537671;28;20385;-39
2023/10/13 17:17:44;;;;;;;13.00;4.22;;;19.40;99.90;;;;;;10525813;28;20049;-37
2023/10/13 17:22:47;;;;;;;22.75;4.70;;;19.30;99.90;;;;;;10528525;28;20513;-38
2023/10/13 17:27:52;;;;;;;21.40;5.20;;;19.20;99.90;;;;;;10533936;28;20052;-38
2023/10/13 17:32:55;;;;;;;19.98;4.47;;;19.30;99.90;;;;;;10517042;28;20060;-40
2023/10/13 17:37:57;;;;;;;12.85;3.55;;;19.30;99.90;;;;;;10533637;28;20044;-36
2023/10/13 17:43:01;;;;;;;15.52;3.70;;;19.40;99.90;;;;;;10528706;28;20044;-36
2023/10/13 17:48:05;;;;;;;19.52;5.05;;;19.50;99.90;;;;;;10528795;28;20114;-32
2023/10/13 17:53:07;;;;;;;21.88;4.30;;;19.50;99.90;;;;;;10529539;28;20083;-37
2023/10/13 17:58:10;;;;;;;17.25;4.28;;;19.10;99.90;;;;;;10541632;28;20075;-39
2023/10/13 18:03:12;;;;;;;22.38;4.90;;;19.40;99.90;;;;;;10541644;28;20044;-36
2023/10/13 18:08:14;;;;;;;15.90;5.30;;;19.80;99.90;;;;;;10552053;28;20175;-36
2023/10/13 18:13:18;;;;;;;19.88;5.72;;;19.20;99.90;;;;;;10540039;28;20054;-38
2023/10/13 18:18:20;;;;;;;29.90;6.10;;;19.40;99.90;;;;;;10538998;28;20481;-37
2023/10/13 18:23:22;;;;;;;17.73;4.88;;;19.30;99.90;;;;;;10536571;28;21773;-38
2023/10/13 18:28:26;;;;;;;20.73;5.38;;;20.60;99.90;;;;;;10555785;28;20044;-32
2023/10/13 18:33:27;;;;;;;23.20;5.70;;;19.70;99.90;;;;;;10543908;28;20493;-38
2023/10/13 18:38:31;;;;;;;14.30;5.18;;;19.60;99.90;;;;;;10537438;28;20469;-31
2023/10/13 18:43:36;;;;;;;18.50;5.43;;;19.50;99.90;;;;;;10542303;28;20484;-35
2023/10/13 18:48:38;;;;;;;15.63;4.60;;;19.20;99.90;;;;;;10532453;28;20079;-34
2023/10/13 18:53:40;;;;;;;17.83;5.60;;;19.10;99.90;;;;;;10538161;28;20048;-36
2023/10/13 18:58:48;;;;;;;17.55;6.60;;;18.80;99.90;;;;;;10546014;28;20070;-39
2023/10/13 19:03:51;;;;;;;22.42;6.13;;;19.00;99.90;;;;;;10538073;28;20039;-38
2023/10/13 19:08:53;;;;;;;16.75;4.85;;;19.20;99.90;;;;;;10538932;28;20047;-32
2023/10/13 19:13:58;;;;;;;19.23;5.95;;;19.70;99.90;;;;;;10532472;28;20144;-37
2023/10/13 19:19:03;;;;;;;24.05;7.07;;;19.50;99.90;;;;;;10534969;28;20047;-32
2023/10/13 19:24:06;;;;;;;23.85;7.40;;;19.30;99.90;;;;;;10532614;28;20845;-39
2023/10/13 19:29:09;;;;;;;21.80;7.20;;;19.30;99.90;;;;;;10533037;28;20048;-39
2023/10/13 19:34:17;;;;;;;22.30;7.68;;;19.80;99.90;;;;;;10539159;28;20105;-31
2023/10/13 19:39:19;;;;;;;24.20;6.95;;;19.40;99.90;;;;;;10545077;28;20391;-31
2023/10/13 19:44:25;;;;;;;22.15;7.38;;;19.00;99.90;;;;;;10538936;28;20064;-35
2023/10/13 19:49:27;;;;;;;21.50;8.68;;;19.40;99.90;;;;;;10538262;28;20048;-32
2023/10/13 19:54:28;;;;;;;28.00;7.97;;;19.30;99.90;;;;;;10532976;28;20477;-34
2023/10/13 19:59:33;;;;;;;31.57;9.13;;;19.40;99.90;;;;;;10553823;28;20126;-38
2023/10/13 20:04:36;;;;;;;30.58;10.00;;;18.50;99.90;;;;;;10542237;28;20044;-40
2023/10/13 20:09:37;;;;;;;32.10;9.98;;;19.00;99.90;;;;;;10540318;28;20044;-32
2023/10/13 20:14:41;;;;;;;22.43;8.43;;;18.70;99.90;;;;;;10538730;28;20101;-33
2023/10/13 20:19:43;;;;;;;24.50;6.45;;;19.30;99.90;;;;;;10551814;28;20485;-37
2023/10/13 20:24:44;;;;;;;22.37;6.40;;;18.70;99.90;;;;;;10540572;28;20105;-42
2023/10/13 20:29:50;;;;;;;34.83;7.70;;;18.70;99.90;;;;;;10540152;28;20982;-32
2023/10/13 20:34:54;;;;;;;20.20;6.53;;;18.90;99.90;;;;;;10550954;28;20404;-33
2023/10/13 20:39:55;;;;;;;30.58;7.20;;;18.70;99.90;;;;;;10541300;28;20044;-36
2023/10/13 20:45:00;;;;;;;38.03;8.63;;;18.70;99.90;;;;;;10538242;28;20428;-35
2023/10/13 20:50:02;;;;;;;28.90;6.80;;;18.50;99.90;;;;;;10543233;28;20055;-32
2023/10/13 20:55:04;;;;;;;28.02;5.70;;;18.60;99.90;;;;;;10536943;28;20043;-35
2023/10/13 21:00:19;;;;;;;28.40;6.30;;;18.20;99.90;;;;;;10540829;28;20400;-34
2023/10/13 21:05:21;;;;;;;37.72;5.63;;;18.10;99.90;;;;;;10541454;28;20413;-38
2023/10/13 21:10:24;;;;;;;18.48;3.05;;;18.30;99.90;;;;;;10546218;28;20105;-34
2023/10/13 21:15:27;;;;;;;11.70;2.58;;;17.70;99.90;;;;;;10531120;28;20052;-36
2023/10/13 21:20:29;;;;;;;12.35;1.73;;;17.40;99.90;;;;;;10517638;28;20067;-36
2023/10/13 21:25:36;;;;;;;13.52;1.30;;;17.10;99.90;;;;;;10548953;28;20051;-31
2023/10/13 21:30:40;;;;;;;11.95;2.08;;;16.70;99.90;;;;;;10531164;28;20125;-34
2023/10/13 21:35:42;;;;;;;6.72;2.50;;;18.30;99.90;;;;;;10534572;28;20060;-31
2023/10/13 21:40:45;;;;;;;7.35;1.50;;;18.40;99.90;;;;;;10540559;28;20412;-36
2023/10/13 21:45:48;;;;;;;12.65;2.00;;;18.80;99.90;;;;;;10515480;28;20055;-33
2023/10/13 21:50:50;;;;;;;8.18;1.92;;;18.00;99.90;;;;;;10537022;28;20081;-39
2023/10/13 21:55:52;;;;;;;7.53;2.17;;;20.30;99.90;;;;;;10532277;28;20067;-39
2023/10/13 22:00:57;;;;;;;6.72;2.05;;;20.10;99.90;;;;;;10554638;28;20054;-35
2023/10/13 22:06:00;;;;;;;3.80;1.75;;;21.20;99.90;;;;;;10530824;28;20068;-32
2023/10/13 22:11:03;;;;;;;6.50;1.38;;;20.20;99.90;;;;;;10528175;28;20075;-32
2023/10/13 22:16:09;;;;;;;3.83;0.90;;;20.30;99.90;;;;;;10541414;28;20048;-35
2023/10/13 22:21:12;;;;;;;7.07;1.63;;;20.80;99.90;;;;;;10537731;28;20484;-32
2023/10/13 22:26:16;;;;;;;4.53;1.40;;;21.20;99.90;;;;;;10546099;28;20116;-36
2023/10/13 22:31:22;;;;;;;5.28;1.60;;;19.50;99.90;;;;;;10542011;28;20083;-33
2023/10/13 22:36:24;;;;;;;13.93;1.27;;;19.00;99.90;;;;;;10540797;28;20055;-38
2023/10/13 22:41:27;;;;;;;12.82;1.85;;;17.80;99.90;;;;;;10541295;28;20088;-38
2023/10/13 22:46:31;;;;;;;4.85;1.10;;;17.70;99.90;;;;;;10543669;28;20128;-32
2023/10/13 22:51:33;;;;;;;12.38;1.40;;;18.50;99.90;;;;;;10538351;28;20101;-34
2023/10/13 22:56:34;;;;;;;5.60;1.40;;;16.90;99.90;;;;;;10537294;28;20040;-33
2023/10/13 23:01:42;;;;;;;9.87;1.57;;;17.80;99.90;;;;;;10542356;28;20474;-35
2023/10/13 23:06:49;;;;;;;6.47;1.20;;;17.40;99.90;;;;;;10534974;28;20048;-41
2023/10/13 23:11:56;;;;;;;6.35;1.58;;;18.30;99.90;;;;;;10525979;28;20814;-41
2023/10/13 23:17:00;;;;;;;6.05;1.15;;;18.10;99.90;;;;;;10542539;28;20055;-31
2023/10/13 23:22:05;;;;;;;9.00;1.98;;;17.60;99.90;;;;;;10545187;28;20043;-36
2023/10/13 23:27:07;;;;;;;7.88;1.17;;;18.90;99.90;;;;;;10542414;28;20048;-34
2023/10/13 23:32:11;;;;;;;3.33;1.43;;;16.70;99.90;;;;;;10548839;28;20058;-38
2023/10/13 23:37:14;;;;;;;7.82;1.83;;;18.50;99.90;;;;;;10545780;28;20130;-35
2023/10/13 23:42:23;;;;;;;3.75;1.38;;;18.40;99.90;;;;;;10546881;28;20127;-32
2023/10/13 23:47:28;;;;;;;10.63;1.17;;;19.40;99.90;;;;;;10551819;28;20044;-40
2023/10/13 23:52:38;;;;;;;8.52;1.35;;;19.40;99.90;;;;;;10555917;28;20040;-41
2023/10/13 23:57:49;;;;;;;10.13;1.58;;;16.80;99.90;;;;;;10547315;28;20127;-33
